sensor_id;sensor_type;location;lat;lon;timestamp;P1;P2;P0
58740;PMS7003;44512;53.046;18.604;2023-04-28T00:04:46;30;23;16
58740;PMS7003;44512;53.046;18.604;2023-04-28T00:15:15;30;26;17
58740;PMS7003;44512;53.046;18.604;2023-04-28T00:25:43;31;24;16
58740;PMS7003;44512;53.046;18.604;2023-04-28T00:36:11;32;27;18
58740;PMS7003;44512;53.046;18.604;2023-04-28T00:46:41;45;33;22
58740;PMS7003;44512;53.046;18.604;2023-04-28T00:57:08;26;23;17
58740;PMS7003;44512;53.046;18.604;2023-04-28T01:07:37;38;32;20
58740;PMS7003;44512;53.046;18.604;2023-04-28T01:18:05;52;38;26
58740;PMS7003;44512;53.046;18.604;2023-04-28T01:28:34;58;45;30
58740;PMS7003;44512;53.046;18.604;2023-04-28T01:39:02;69;54;35
58740;PMS7003;44512;53.046;18.604;2023-04-28T01:49:31;64;49;32
58740;PMS7003;44512;53.046;18.604;2023-04-28T01:59:59;57;44;30
58740;PMS7003;44512;53.046;18.604;2023-04-28T02:10:28;57;44;29
58740;PMS7003;44512;53.046;18.604;2023-04-28T02:20:56;54;42;28
58740;PMS7003;44512;53.046;18.604;2023-04-28T02:31:25;57;44;29
58740;PMS7003;44512;53.046;18.604;2023-04-28T02:41:53;54;42;29
58740;PMS7003;44512;53.046;18.604;2023-04-28T02:52:22;48;40;27
58740;PMS7003;44512;53.046;18.604;2023-04-28T03:02:50;48;38;26
58740;PMS7003;44512;53.046;18.604;2023-04-28T03:13:19;37;28;17
58740;PMS7003;44512;53.046;18.604;2023-04-28T03:23:47;52;41;27
58740;PMS7003;44512;53.046;18.604;2023-04-28T03:34:16;54;41;27
58740;PMS7003;44512;53.046;18.604;2023-04-28T03:44:44;57;43;30
58740;PMS7003;44512;53.046;18.604;2023-04-28T03:55:13;59;45;32
58740;PMS7003;44512;53.046;18.604;2023-04-28T04:05:41;58;43;28
58740;PMS7003;44512;53.046;18.604;2023-04-28T04:16:10;47;38;25
58740;PMS7003;44512;53.046;18.604;2023-04-28T04:26:38;54;42;29
58740;PMS7003;44512;53.046;18.604;2023-04-28T04:37:07;55;43;28
58740;PMS7003;44512;53.046;18.604;2023-04-28T04:47:35;60;44;29
58740;PMS7003;44512;53.046;18.604;2023-04-28T04:58:03;55;40;27
58740;PMS7003;44512;53.046;18.604;2023-04-28T05:08:32;53;42;29
58740;PMS7003;44512;53.046;18.604;2023-04-28T05:19:00;51;39;28
58740;PMS7003;44512;53.046;18.604;2023-04-28T05:29:29;37;30;21
58740;PMS7003;44512;53.046;18.604;2023-04-28T05:39:57;25;23;16
58740;PMS7003;44512;53.046;18.604;2023-04-28T05:50:26;24;18;13
58740;PMS7003;44512;53.046;18.604;2023-04-28T06:00:54;18;13;10
58740;PMS7003;44512;53.046;18.604;2023-04-28T06:11:22;17;12;9
58740;PMS7003;44512;53.046;18.604;2023-04-28T06:21:51;13;12;8
58740;PMS7003;44512;53.046;18.604;2023-04-28T06:32:19;13;10;8
58740;PMS7003;44512;53.046;18.604;2023-04-28T06:42:48;13;9;7
58740;PMS7003;44512;53.046;18.604;2023-04-28T06:53:16;9;7;6
58740;PMS7003;44512;53.046;18.604;2023-04-28T07:03:44;5;5;4
58740;PMS7003;44512;53.046;18.604;2023-04-28T07:14:13;4;3;2
58740;PMS7003;44512;53.046;18.604;2023-04-28T07:24:41;3;2;2
58740;PMS7003;44512;53.046;18.604;2023-04-28T07:35:09;2;2;2
58740;PMS7003;44512;53.046;18.604;2023-04-28T07:45:38;3;2;1
58740;PMS7003;44512;53.046;18.604;2023-04-28T07:56:06;2;1;1
58740;PMS7003;44512;53.046;18.604;2023-04-28T08:06:35;1;1;1
58740;PMS7003;44512;53.046;18.604;2023-04-28T08:17:03;1;0;0
58740;PMS7003;44512;53.046;18.604;2023-04-28T08:27:31;2;2;2
58740;PMS7003;44512;53.046;18.604;2023-04-28T08:38:00;2;1;1
58740;PMS7003;44512;53.046;18.604;2023-04-28T08:48:28;2;1;0
58740;PMS7003;44512;53.046;18.604;2023-04-28T08:58:57;1;1;1
58740;PMS7003;44512;53.046;18.604;2023-04-28T09:09:29;2;2;1
58740;PMS7003;44512;53.046;18.604;2023-04-28T09:19:53;3;2;2
58740;PMS7003;44512;53.046;18.604;2023-04-28T09:30:37;2;1;1
58740;PMS7003;44512;53.046;18.604;2023-04-28T09:40:55;1;1;1
58740;PMS7003;44512;53.046;18.604;2023-04-28T09:51:19;1;1;1
58740;PMS7003;44512;53.046;18.604;2023-04-28T10:01:47;2;1;1
58740;PMS7003;44512;53.046;18.604;2023-04-28T10:12:16;1;1;1
58740;PMS7003;44512;53.046;18.604;2023-04-28T10:33:21;1;1;1
58740;PMS7003;44512;53.046;18.604;2023-04-28T10:43:40;2;1;1
58740;PMS7003;44512;53.046;18.604;2023-04-28T10:54:09;2;2;1
58740;PMS7003;44512;53.046;18.604;2023-04-28T11:05:02;3;2;1
58740;PMS7003;44512;53.046;18.604;2023-04-28T11:36:03;4;3;2
58740;PMS7003;44512;53.046;18.604;2023-04-28T11:46:31;2;1;1
58740;PMS7003;44512;53.046;18.604;2023-04-28T11:56:59;2;2;2
58740;PMS7003;44512;53.046;18.604;2023-04-28T12:07:27;4;2;2
58740;PMS7003;44512;53.046;18.604;2023-04-28T12:17:56;5;3;3
58740;PMS7003;44512;53.046;18.604;2023-04-28T12:28:35;6;2;2
58740;PMS7003;44512;53.046;18.604;2023-04-28T12:38:52;5;4;4
58740;PMS7003;44512;53.046;18.604;2023-04-28T12:49:21;5;4;3
58740;PMS7003;44512;53.046;18.604;2023-04-28T12:59:49;8;6;5
58740;PMS7003;44512;53.046;18.604;2023-04-28T13:10:18;4;4;3
58740;PMS7003;44512;53.046;18.604;2023-04-28T13:20:46;7;5;4
58740;PMS7003;44512;53.046;18.604;2023-04-28T13:31:14;9;7;6
58740;PMS7003;44512;53.046;18.604;2023-04-28T13:41:43;8;7;5
58740;PMS7003;44512;53.046;18.604;2023-04-28T13:52:11;11;7;5
58740;PMS7003;44512;53.046;18.604;2023-04-28T14:02:39;8;8;6
58740;PMS7003;44512;53.046;18.604;2023-04-28T14:13:08;10;6;5
58740;PMS7003;44512;53.046;18.604;2023-04-28T14:23:36;8;8;6
58740;PMS7003;44512;53.046;18.604;2023-04-28T14:34:05;6;6;5
58740;PMS7003;44512;53.046;18.604;2023-04-28T14:49:42;11;9;7
58740;PMS7003;44512;53.046;18.604;2023-04-28T15:00:10;9;6;5
58740;PMS7003;44512;53.046;18.604;2023-04-28T15:10:39;7;6;5
58740;PMS7003;44512;53.046;18.604;2023-04-28T15:21:07;6;5;4
58740;PMS7003;44512;53.046;18.604;2023-04-28T15:31:36;7;5;4
58740;PMS7003;44512;53.046;18.604;2023-04-28T15:42:04;8;7;5
58740;PMS7003;44512;53.046;18.604;2023-04-28T15:52:32;9;8;6
58740;PMS7003;44512;53.046;18.604;2023-04-28T16:03:00;8;6;5
58740;PMS7003;44512;53.046;18.604;2023-04-28T16:13:29;9;8;7
58740;PMS7003;44512;53.046;18.604;2023-04-28T16:23:57;9;9;7
58740;PMS7003;44512;53.046;18.604;2023-04-28T16:34:25;9;8;7
58740;PMS7003;44512;53.046;18.604;2023-04-28T16:44:54;7;6;4
58740;PMS7003;44512;53.046;18.604;2023-04-28T16:55:22;8;8;6
58740;PMS7003;44512;53.046;18.604;2023-04-28T17:05:50;9;8;7
58740;PMS7003;44512;53.046;18.604;2023-04-28T17:16:19;16;12;9
58740;PMS7003;44512;53.046;18.604;2023-04-28T17:26:47;15;12;10
58740;PMS7003;44512;53.046;18.604;2023-04-28T17:37:15;10;9;7
58740;PMS7003;44512;53.046;18.604;2023-04-28T17:47:44;10;10;7
58740;PMS7003;44512;53.046;18.604;2023-04-28T17:58:12;9;9;7
58740;PMS7003;44512;53.046;18.604;2023-04-28T18:08:40;10;9;8
58740;PMS7003;44512;53.046;18.604;2023-04-28T18:19:08;11;9;8
58740;PMS7003;44512;53.046;18.604;2023-04-28T18:29:37;16;14;11
58740;PMS7003;44512;53.046;18.604;2023-04-28T18:40:05;18;17;12
58740;PMS7003;44512;53.046;18.604;2023-04-28T18:50:33;23;17;13
58740;PMS7003;44512;53.046;18.604;2023-04-28T19:01:02;23;20;15
58740;PMS7003;44512;53.046;18.604;2023-04-28T19:11:30;23;20;15
58740;PMS7003;44512;53.046;18.604;2023-04-28T19:21:59;29;22;17
58740;PMS7003;44512;53.046;18.604;2023-04-28T19:32:27;22;22;16
58740;PMS7003;44512;53.046;18.604;2023-04-28T19:42:55;29;25;18
58740;PMS7003;44512;53.046;18.604;2023-04-28T19:53:24;30;24;17
58740;PMS7003;44512;53.046;18.604;2023-04-28T20:03:52;38;31;21
58740;PMS7003;44512;53.046;18.604;2023-04-28T20:14:21;32;27;19
58740;PMS7003;44512;53.046;18.604;2023-04-28T20:24:49;32;28;20
58740;PMS7003;44512;53.046;18.604;2023-04-28T20:35:18;36;30;22
58740;PMS7003;44512;53.046;18.604;2023-04-28T20:45:46;32;28;20
58740;PMS7003;44512;53.046;18.604;2023-04-28T20:56:14;39;30;22
58740;PMS7003;44512;53.046;18.604;2023-04-28T21:06:43;41;32;22
58740;PMS7003;44512;53.046;18.604;2023-04-28T21:17:11;36;32;22
58740;PMS7003;44512;53.046;18.604;2023-04-28T21:27:40;35;29;21
58740;PMS7003;44512;53.046;18.604;2023-04-28T21:38:08;29;27;20
58740;PMS7003;44512;53.046;18.604;2023-04-28T21:48:36;35;30;20
58740;PMS7003;44512;53.046;18.604;2023-04-28T21:59:05;36;28;20
58740;PMS7003;44512;53.046;18.604;2023-04-28T22:09:33;37;29;20
58740;PMS7003;44512;53.046;18.604;2023-04-28T22:20:02;32;29;20
58740;PMS7003;44512;53.046;18.604;2023-04-28T22:30:30;30;26;19
58740;PMS7003;44512;53.046;18.604;2023-04-28T22:40:58;32;24;18
58740;PMS7003;44512;53.046;18.604;2023-04-28T22:51:27;30;28;21
58740;PMS7003;44512;53.046;18.604;2023-04-28T23:01:55;31;25;18
58740;PMS7003;44512;53.046;18.604;2023-04-28T23:12:23;30;26;20
58740;PMS7003;44512;53.046;18.604;2023-04-28T23:22:52;29;25;17
58740;PMS7003;44512;53.046;18.604;2023-04-28T23:33:20;34;27;20
58740;PMS7003;44512;53.046;18.604;2023-04-28T23:43:49;27;25;18
58740;PMS7003;44512;53.046;18.604;2023-04-28T23:54:17;28;25;17
